Yiyuan, China
Current Conditions -  °F | °C
As of 8:00 AM on Saturday 20 Dec 2014 (Local Time) from ZSJN Reporting Station
Clear Clear  
Wind Chill: 18°   Ceiling: Unl
Heat Index: 18°   Visibility: 6mi
Dew Point:   Wind: 2mph
Humidity: 63%   Direction: 180°S
Pressure: 30.45"   Gusts: NA
Location:  36.18°N, 118.15°E
Report Text: ZSJN 200000Z 18001MPS CAVOK M08/M14 Q1031 NOSIG
Loading
Personal Weather Stations






























Interactive Weather Map New forecast layout! Learn more

10-Day Weather Forecast

Advertisements
Track Severe Weather on mobile